Time;durP1;ratioP1;P1;durP2;ratioP2;P2;SDS_P1;SDS_P2;PMS_P1;PMS_P2;Temp;Humidity;BMP_temperature;BMP_pressure;BME280_temperature;BME280_humidity;BME280_pressure;Samples;Min_cycle;Max_cycle;Signal;HPM_P1;HPM_P2
2023/07/23 00:02:05;;;;;;;4.10;3.53;;;25.40;47.20;;;;;;5036963;28;20241;-68
2023/07/23 00:04:31;;;;;;;5.13;3.40;;;25.40;47.20;;;;;;5036756;28;20177;-68
2023/07/23 00:06:57;;;;;;;6.43;3.37;;;25.40;47.20;;;;;;5036838;28;20187;-68
2023/07/23 00:09:22;;;;;;;4.10;3.70;;;25.40;47.20;;;;;;5037310;28;20294;-68
2023/07/23 00:11:48;;;;;;;5.40;3.43;;;25.40;47.20;;;;;;5036919;28;20186;-68
2023/07/23 00:14:14;;;;;;;4.03;3.37;;;25.30;47.20;;;;;;5037780;28;20204;-68
2023/07/23 00:16:39;;;;;;;4.97;3.70;;;25.40;47.30;;;;;;5037230;28;20202;-68
2023/07/23 00:19:05;;;;;;;5.37;3.57;;;25.30;47.20;;;;;;5037271;28;20199;-68
2023/07/23 00:21:31;;;;;;;3.73;3.43;;;25.40;47.20;;;;;;5037178;28;20171;-68
2023/07/23 00:23:57;;;;;;;3.87;3.47;;;25.40;47.20;;;;;;5037517;28;20179;-68
2023/07/23 00:26:22;;;;;;;5.17;3.90;;;25.30;47.20;;;;;;5035760;28;20414;-68
2023/07/23 00:28:48;;;;;;;4.00;3.60;;;25.30;47.20;;;;;;5036982;28;20274;-69
2023/07/23 00:31:14;;;;;;;4.70;3.40;;;25.30;47.20;;;;;;5037005;28;20182;-68
2023/07/23 00:33:39;;;;;;;4.40;3.27;;;25.30;47.20;;;;;;5037100;28;20183;-68
2023/07/23 00:36:05;;;;;;;5.10;3.67;;;25.30;47.20;;;;;;5036684;28;20922;-69
2023/07/23 00:38:30;;;;;;;5.40;3.67;;;25.30;47.20;;;;;;5036713;28;20568;-68
2023/07/23 00:40:56;;;;;;;6.67;4.03;;;25.30;47.20;;;;;;5035362;28;20183;-67
2023/07/23 00:43:22;;;;;;;7.30;3.80;;;25.30;47.20;;;;;;5036114;28;20171;-68
2023/07/23 00:45:48;;;;;;;5.83;4.30;;;25.30;47.10;;;;;;5035623;28;20183;-68
2023/07/23 00:48:14;;;;;;;4.00;3.53;;;25.30;47.10;;;;;;5039635;28;20446;-68
2023/07/23 00:50:40;;;;;;;4.87;3.80;;;25.30;47.20;;;;;;5041435;28;20163;-68
2023/07/23 00:53:06;;;;;;;4.93;3.30;;;25.30;47.20;;;;;;5041070;28;20274;-69
2023/07/23 00:55:32;;;;;;;8.97;4.00;;;25.30;47.20;;;;;;5041003;28;20734;-68
2023/07/23 00:57:57;;;;;;;5.63;4.10;;;25.30;47.20;;;;;;5040435;28;20469;-68
2023/07/23 01:00:23;;;;;;;4.13;3.73;;;25.30;47.20;;;;;;5041094;28;20179;-68
2023/07/23 01:02:49;;;;;;;3.80;3.40;;;25.30;47.10;;;;;;5041424;28;20183;-68
2023/07/23 01:05:15;;;;;;;5.63;4.27;;;25.30;47.20;;;;;;5041101;28;20182;-68
2023/07/23 01:07:43;;;;;;;4.33;3.53;;;25.30;47.10;;;;;;5040642;28;20192;-68
2023/07/23 01:10:09;;;;;;;4.77;3.67;;;25.30;47.10;;;;;;5040843;28;20441;-68
2023/07/23 01:12:37;;;;;;;5.73;4.10;;;25.30;47.10;;;;;;5041001;28;20422;-69
2023/07/23 01:15:04;;;;;;;4.83;4.13;;;25.30;47.10;;;;;;5039916;28;20418;-69
2023/07/23 01:17:31;;;;;;;3.87;3.33;;;25.30;47.10;;;;;;5040658;28;20458;-68
2023/07/23 01:20:05;;;;;;;6.60;3.80;;;25.30;47.10;;;;;;5040718;28;20409;-68
2023/07/23 01:22:35;;;;;;;6.63;3.97;;;25.30;47.10;;;;;;5040326;28;20459;-68
2023/07/23 01:25:04;;;;;;;4.03;3.57;;;25.20;47.00;;;;;;5040233;28;20398;-68
2023/07/23 01:27:30;;;;;;;6.20;4.80;;;25.20;47.00;;;;;;5040195;28;20834;-69
2023/07/23 01:29:56;;;;;;;5.03;3.87;;;25.20;47.00;;;;;;5040165;28;20802;-68
2023/07/23 01:32:21;;;;;;;4.00;3.53;;;25.30;47.00;;;;;;5040264;28;20422;-68
2023/07/23 01:34:47;;;;;;;4.17;3.20;;;25.30;47.00;;;;;;5040608;28;20188;-68
2023/07/23 01:37:14;;;;;;;4.50;3.80;;;25.30;46.90;;;;;;5040302;28;20200;-68
2023/07/23 01:39:42;;;;;;;5.20;3.73;;;25.30;47.00;;;;;;5040233;28;20463;-68
2023/07/23 01:42:11;;;;;;;6.23;3.63;;;25.30;47.00;;;;;;5040191;28;20466;-69
2023/07/23 01:44:37;;;;;;;4.30;3.90;;;25.20;46.90;;;;;;5040058;28;20487;-68
2023/07/23 01:47:03;;;;;;;3.90;3.47;;;25.20;46.90;;;;;;5038909;28;20418;-68
2023/07/23 01:49:29;;;;;;;3.60;3.10;;;25.20;46.80;;;;;;5040076;28;21016;-69
2023/07/23 01:51:55;;;;;;;3.73;3.33;;;25.20;46.80;;;;;;5039363;28;20179;-68
2023/07/23 01:54:20;;;;;;;5.03;3.60;;;25.30;46.90;;;;;;5038878;28;20184;-68
2023/07/23 01:56:47;;;;;;;4.87;3.37;;;25.20;46.80;;;;;;5039780;28;20257;-69
2023/07/23 01:59:13;;;;;;;4.47;3.80;;;25.20;46.80;;;;;;5037989;28;20190;-68
2023/07/23 02:01:38;;;;;;;3.40;3.10;;;25.20;46.90;;;;;;5040143;28;20410;-68
2023/07/23 02:04:04;;;;;;;4.53;3.70;;;25.20;46.90;;;;;;5039801;28;20255;-68
2023/07/23 02:06:30;;;;;;;5.10;3.40;;;25.20;46.90;;;;;;5039834;28;20172;-68
2023/07/23 02:08:55;;;;;;;5.07;3.37;;;25.20;46.90;;;;;;5039137;28;20275;-68
2023/07/23 02:11:21;;;;;;;4.73;4.07;;;25.20;46.90;;;;;;5038790;28;20182;-68
2023/07/23 02:13:46;;;;;;;4.80;3.80;;;25.20;46.80;;;;;;5039142;28;20171;-68
2023/07/23 02:16:19;;;;;;;5.73;4.07;;;25.20;46.80;;;;;;5039312;28;20180;-68
2023/07/23 02:18:44;;;;;;;6.20;3.97;;;25.20;46.80;;;;;;5038996;28;20766;-68
2023/07/23 02:21:10;;;;;;;4.40;4.00;;;25.20;46.80;;;;;;5039325;28;20438;-68
2023/07/23 02:23:36;;;;;;;4.13;3.30;;;25.20;46.80;;;;;;5039048;28;20199;-68
2023/07/23 02:26:01;;;;;;;4.77;4.10;;;25.20;46.80;;;;;;5039662;28;20259;-68
2023/07/23 02:28:27;;;;;;;4.60;3.67;;;25.20;46.80;;;;;;5040118;28;20211;-68
2023/07/23 02:30:59;;;;;;;4.00;3.60;;;25.20;46.80;;;;;;5039716;28;20542;-68
2023/07/23 02:33:26;;;;;;;4.83;3.73;;;25.20;46.80;;;;;;5039172;28;20174;-68
2023/07/23 02:35:52;;;;;;;4.50;3.80;;;25.20;46.80;;;;;;5039391;28;20827;-68
2023/07/23 02:38:18;;;;;;;3.60;3.20;;;25.10;46.70;;;;;;5038760;28;20532;-68
2023/07/23 02:40:43;;;;;;;3.60;3.23;;;25.10;46.60;;;;;;5038724;28;20175;-68
2023/07/23 02:43:12;;;;;;;4.23;3.73;;;25.20;46.70;;;;;;5038543;28;20199;-69
2023/07/23 02:45:38;;;;;;;4.53;3.70;;;25.10;46.60;;;;;;5038854;28;20168;-69
2023/07/23 02:48:05;;;;;;;3.77;3.47;;;25.10;46.60;;;;;;5037706;28;20442;-68
2023/07/23 02:50:30;;;;;;;5.77;3.20;;;25.10;46.60;;;;;;5038497;28;20460;-68
2023/07/23 02:52:56;;;;;;;5.53;3.23;;;25.10;46.60;;;;;;5038260;28;20410;-68
2023/07/23 02:55:24;;;;;;;5.20;3.63;;;25.10;46.60;;;;;;5038898;28;20186;-68
2023/07/23 02:57:50;;;;;;;3.87;3.50;;;25.10;46.60;;;;;;5038068;28;20203;-68
2023/07/23 03:00:18;;;;;;;5.10;3.60;;;25.10;46.60;;;;;;5038667;28;20410;-68
2023/07/23 03:02:45;;;;;;;4.57;3.50;;;25.10;46.60;;;;;;5037976;28;20838;-68
2023/07/23 03:05:11;;;;;;;5.53;3.70;;;25.10;46.70;;;;;;5038260;28;20904;-69
2023/07/23 03:07:38;;;;;;;4.23;3.40;;;25.10;46.70;;;;;;5038022;28;20449;-67
2023/07/23 03:10:04;;;;;;;4.13;3.23;;;25.10;46.70;;;;;;5037026;28;20176;-68
2023/07/23 03:12:30;;;;;;;4.50;3.37;;;25.10;46.70;;;;;;5036864;28;20411;-68
2023/07/23 03:14:56;;;;;;;4.00;3.60;;;25.10;46.70;;;;;;5036504;28;20410;-68
2023/07/23 03:17:21;;;;;;;4.03;3.63;;;25.10;46.70;;;;;;5037105;28;20561;-69
2023/07/23 03:19:47;;;;;;;4.47;3.90;;;25.10;46.70;;;;;;5036635;28;20167;-69
2023/07/23 03:22:13;;;;;;;4.20;3.67;;;25.10;46.80;;;;;;5035132;28;20270;-68
2023/07/23 03:24:38;;;;;;;4.40;3.80;;;25.10;46.80;;;;;;5036882;28;20171;-68
2023/07/23 03:27:05;;;;;;;4.80;3.53;;;25.10;46.80;;;;;;5036358;28;20171;-68
2023/07/23 03:29:30;;;;;;;4.57;4.07;;;25.10;46.80;;;;;;5036749;28;20281;-68
2023/07/23 03:31:56;;;;;;;4.00;3.40;;;25.10;46.80;;;;;;5037029;28;20410;-68
2023/07/23 03:34:22;;;;;;;4.37;3.40;;;25.10;46.80;;;;;;5036738;28;20205;-69
2023/07/23 03:36:47;;;;;;;6.90;4.20;;;25.10;46.80;;;;;;5036484;28;20210;-67
2023/07/23 03:39:16;;;;;;;4.43;3.77;;;25.10;46.90;;;;;;5036308;28;20188;-68
2023/07/23 03:41:43;;;;;;;4.67;4.00;;;25.10;46.90;;;;;;5036538;28;20201;-67
2023/07/23 03:44:08;;;;;;;4.53;3.83;;;25.10;46.90;;;;;;5036094;28;20433;-68
2023/07/23 03:46:45;;;;;;;7.00;4.50;;;25.10;46.90;;;;;;5036040;28;20411;-68
2023/07/23 03:49:11;;;;;;;6.33;4.00;;;25.10;46.90;;;;;;5035910;28;20592;-67
2023/07/23 03:51:37;;;;;;;4.70;3.90;;;25.10;47.00;;;;;;5035747;28;20421;-68
2023/07/23 03:54:03;;;;;;;5.63;4.33;;;25.10;47.00;;;;;;5035302;28;20793;-67
2023/07/23 03:56:28;;;;;;;5.10;3.87;;;25.10;47.00;;;;;;5035514;28;20214;-67
2023/07/23 03:58:54;;;;;;;4.27;3.70;;;25.10;47.00;;;;;;5035299;28;20431;-68
2023/07/23 04:01:19;;;;;;;5.23;3.50;;;25.10;47.00;;;;;;5035818;28;20255;-67
2023/07/23 04:03:45;;;;;;;4.17;3.80;;;25.10;47.00;;;;;;5035564;28;20176;-68
2023/07/23 04:06:11;;;;;;;4.30;3.90;;;25.10;47.00;;;;;;5035560;28;20265;-68
2023/07/23 04:08:36;;;;;;;4.47;3.70;;;25.10;47.10;;;;;;5034898;28;20199;-68
2023/07/23 04:11:02;;;;;;;5.90;3.23;;;25.10;47.00;;;;;;5034559;28;20194;-68
2023/07/23 04:13:27;;;;;;;4.30;3.73;;;25.10;47.10;;;;;;5034581;28;20172;-68
2023/07/23 04:15:53;;;;;;;3.43;3.13;;;25.10;47.10;;;;;;5034424;28;20601;-67
2023/07/23 04:18:19;;;;;;;5.40;3.47;;;25.10;47.10;;;;;;5033966;28;20207;-68
2023/07/23 04:20:44;;;;;;;4.40;3.50;;;25.10;47.10;;;;;;5035740;28;20167;-68
2023/07/23 04:23:10;;;;;;;4.60;3.00;;;25.10;47.10;;;;;;5035818;28;20253;-68
2023/07/23 04:25:35;;;;;;;4.17;3.27;;;25.10;47.10;;;;;;5036362;28;20178;-68
2023/07/23 04:28:01;;;;;;;3.40;3.10;;;25.10;47.10;;;;;;5036378;28;20313;-68
2023/07/23 04:30:30;;;;;;;5.83;3.90;;;25.10;47.10;;;;;;5036228;28;20209;-68
2023/07/23 04:32:55;;;;;;;7.10;4.07;;;25.10;47.10;;;;;;5035999;28;20524;-68
2023/07/23 04:35:21;;;;;;;6.43;4.10;;;25.10;47.10;;;;;;5035709;28;20416;-68
2023/07/23 04:37:46;;;;;;;4.07;3.53;;;25.10;47.10;;;;;;5035731;28;20267;-68
2023/07/23 04:40:12;;;;;;;5.07;4.13;;;25.10;47.10;;;;;;5035784;28;20255;-67
2023/07/23 04:42:38;;;;;;;4.27;3.47;;;25.10;47.00;;;;;;5035863;28;20202;-69
2023/07/23 04:45:04;;;;;;;4.33;3.67;;;25.10;47.10;;;;;;5036209;28;20176;-68
2023/07/23 04:47:29;;;;;;;6.00;4.37;;;25.10;47.00;;;;;;5036154;28;20176;-68
2023/07/23 04:49:57;;;;;;;5.27;3.53;;;25.10;47.00;;;;;;5035771;28;20924;-68
2023/07/23 04:52:23;;;;;;;3.83;3.23;;;25.10;47.60;;;;;;5035554;28;20164;-68
2023/07/23 04:54:48;;;;;;;5.83;3.90;;;25.10;47.00;;;;;;5036315;28;20398;-68
2023/07/23 04:57:14;;;;;;;5.97;3.50;;;25.10;47.10;;;;;;5034810;28;20316;-68
2023/07/23 04:59:40;;;;;;;4.80;3.93;;;25.10;47.00;;;;;;5036143;28;20664;-68
2023/07/23 05:02:05;;;;;;;4.30;3.77;;;25.10;47.00;;;;;;5035732;28;20190;-68
2023/07/23 05:04:31;;;;;;;5.40;4.53;;;25.10;47.00;;;;;;5035818;28;20545;-68
2023/07/23 05:06:56;;;;;;;4.77;3.60;;;25.10;47.00;;;;;;5036006;28;20206;-69
2023/07/23 05:09:22;;;;;;;4.30;3.83;;;25.10;47.00;;;;;;5035360;28;20196;-69
2023/07/23 05:11:48;;;;;;;4.93;3.87;;;25.10;47.10;;;;;;5035398;28;20207;-69
2023/07/23 05:14:15;;;;;;;3.30;3.00;;;25.10;47.10;;;;;;5035364;28;20709;-68
2023/07/23 05:16:40;;;;;;;4.03;3.63;;;25.10;47.10;;;;;;5035368;28;20505;-68
2023/07/23 05:19:06;;;;;;;3.97;3.57;;;25.10;47.10;;;;;;5035632;28;20441;-68
2023/07/23 05:21:34;;;;;;;4.90;3.57;;;25.10;47.10;;;;;;5035085;28;20172;-67
2023/07/23 05:24:01;;;;;;;5.10;4.10;;;25.10;47.10;;;;;;5035087;28;20163;-68
2023/07/23 05:26:27;;;;;;;5.30;3.87;;;25.10;47.10;;;;;;5035628;28;20460;-68
2023/07/23 05:28:52;;;;;;;4.30;3.90;;;25.10;47.10;;;;;;5034635;28;20426;-69
2023/07/23 05:31:18;;;;;;;4.67;3.53;;;25.10;47.20;;;;;;5034695;28;20176;-68
2023/07/23 05:33:43;;;;;;;4.27;3.70;;;25.10;47.10;;;;;;5035839;28;20168;-67
2023/07/23 05:36:09;;;;;;;4.70;3.80;;;25.10;47.10;;;;;;5037435;28;20183;-68
2023/07/23 05:38:34;;;;;;;5.47;3.93;;;25.10;47.20;;;;;;5037291;28;20192;-68
2023/07/23 05:41:00;;;;;;;3.97;3.40;;;25.10;47.20;;;;;;5037135;28;20228;-67
2023/07/23 05:43:26;;;;;;;5.10;4.13;;;25.10;47.20;;;;;;5036947;28;20179;-67
2023/07/23 05:45:51;;;;;;;4.00;3.60;;;25.10;47.20;;;;;;5035820;28;20180;-68
2023/07/23 05:48:17;;;;;;;4.60;3.93;;;25.10;47.20;;;;;;5035275;28;20648;-68
2023/07/23 05:50:43;;;;;;;4.20;3.73;;;25.10;47.20;;;;;;5037282;28;20160;-68
2023/07/23 05:53:08;;;;;;;4.30;3.90;;;25.10;47.20;;;;;;5037745;28;20208;-68
2023/07/23 05:55:34;;;;;;;5.80;3.90;;;25.10;47.20;;;;;;5037696;28;20183;-68
2023/07/23 05:57:59;;;;;;;5.60;4.07;;;25.10;47.30;;;;;;5036617;28;20215;-67
2023/07/23 06:00:25;;;;;;;4.33;3.63;;;25.10;47.30;;;;;;5037239;28;20191;-68
2023/07/23 06:02:51;;;;;;;5.37;3.80;;;25.20;47.40;;;;;;5036721;28;20180;-68
2023/07/23 06:05:17;;;;;;;3.70;3.40;;;25.20;47.40;;;;;;5036587;28;20178;-69
2023/07/23 06:07:42;;;;;;;3.70;3.10;;;25.20;47.40;;;;;;5036692;28;20513;-68
2023/07/23 06:10:08;;;;;;;4.77;3.60;;;25.20;47.40;;;;;;5036568;28;20179;-68
2023/07/23 06:12:34;;;;;;;4.20;3.20;;;25.10;47.30;;;;;;5036631;28;20251;-67
2023/07/23 06:15:00;;;;;;;3.67;3.10;;;25.10;47.30;;;;;;5036629;28;20498;-67
2023/07/23 06:17:25;;;;;;;6.93;3.47;;;25.20;47.40;;;;;;5036253;28;20199;-68
2023/07/23 06:19:51;;;;;;;3.47;3.17;;;25.10;47.30;;;;;;5036657;28;20176;-67
2023/07/23 06:22:16;;;;;;;4.07;2.87;;;25.20;47.40;;;;;;5036469;28;20178;-68
2023/07/23 06:24:42;;;;;;;3.90;3.50;;;25.20;47.40;;;;;;5036091;28;20545;-68
2023/07/23 06:27:07;;;;;;;3.67;2.90;;;25.20;47.90;;;;;;5036583;28;20183;-68
2023/07/23 06:29:33;;;;;;;4.07;3.60;;;25.20;47.40;;;;;;5036725;28;20199;-68
2023/07/23 06:31:58;;;;;;;3.40;3.10;;;25.20;47.40;;;;;;5036546;28;20526;-68
2023/07/23 06:34:24;;;;;;;3.63;2.90;;;25.20;47.40;;;;;;5036279;28;20266;-67
2023/07/23 06:36:50;;;;;;;4.17;3.43;;;25.20;47.40;;;;;;5035862;28;20255;-68
2023/07/23 06:39:15;;;;;;;3.23;2.93;;;25.20;47.40;;;;;;5036427;28;20283;-68
2023/07/23 06:41:41;;;;;;;3.97;3.00;;;25.20;47.40;;;;;;5036860;28;20235;-68
2023/07/23 06:44:07;;;;;;;3.97;3.27;;;25.20;47.40;;;;;;5036148;28;20183;-68
2023/07/23 06:46:33;;;;;;;3.30;3.00;;;25.20;47.40;;;;;;5035974;28;20516;-68
2023/07/23 06:48:58;;;;;;;3.00;2.80;;;25.20;47.40;;;;;;5036044;28;20218;-67
2023/07/23 06:51:25;;;;;;;4.07;3.10;;;25.20;47.30;;;;;;5035954;28;20614;-67
2023/07/23 06:53:51;;;;;;;3.93;3.40;;;25.20;47.30;;;;;;5035343;28;20183;-67
2023/07/23 06:56:17;;;;;;;4.40;2.60;;;25.20;47.30;;;;;;5035164;28;20414;-67
2023/07/23 06:58:43;;;;;;;4.23;3.63;;;25.20;47.30;;;;;;5034948;28;20657;-67
2023/07/23 07:01:10;;;;;;;4.27;3.53;;;25.30;47.40;;;;;;5035281;28;20446;-66
2023/07/23 07:03:36;;;;;;;4.23;3.07;;;25.20;47.40;;;;;;5034607;28;20920;-67
2023/07/23 07:06:02;;;;;;;3.37;3.07;;;25.20;47.40;;;;;;5034729;28;20175;-67
2023/07/23 07:08:28;;;;;;;3.87;3.47;;;25.20;47.40;;;;;;5035159;28;20780;-67
2023/07/23 07:11:02;;;;;;;3.27;2.97;;;25.20;47.40;;;;;;5035023;28;20413;-68
2023/07/23 07:13:29;;;;;;;3.53;3.23;;;25.30;47.40;;;;;;5034354;28;20898;-68
2023/07/23 07:15:54;;;;;;;3.60;2.80;;;25.30;47.40;;;;;;5033193;28;20473;-68
2023/07/23 07:18:20;;;;;;;4.20;3.80;;;25.30;47.40;;;;;;5034066;28;20822;-67
2023/07/23 07:20:57;;;;;;;4.10;3.17;;;25.30;47.40;;;;;;5048241;28;20244;-68
2023/07/23 07:23:23;;;;;;;4.30;2.77;;;25.30;47.40;;;;;;5053015;28;20163;-68
2023/07/23 07:25:49;;;;;;;4.50;3.13;;;25.30;47.50;;;;;;5054377;28;20921;-68
2023/07/23 07:28:14;;;;;;;4.77;3.10;;;25.30;47.50;;;;;;5055719;28;20203;-68
2023/07/23 07:30:40;;;;;;;3.83;3.13;;;25.30;47.50;;;;;;5054451;28;20179;-68
2023/07/23 07:33:06;;;;;;;4.20;2.80;;;25.30;47.50;;;;;;5054758;28;20175;-68
2023/07/23 07:35:31;;;;;;;3.90;3.50;;;25.30;47.50;;;;;;5054730;28;20486;-68
2023/07/23 07:37:57;;;;;;;3.50;3.20;;;25.30;47.50;;;;;;5052974;28;20226;-67
2023/07/23 07:40:23;;;;;;;3.23;2.70;;;25.30;47.50;;;;;;5054464;28;20207;-68
2023/07/23 07:42:48;;;;;;;4.60;3.30;;;25.30;47.50;;;;;;5054797;28;20274;-68
2023/07/23 07:45:14;;;;;;;3.40;3.10;;;25.30;47.50;;;;;;5054235;28;20203;-67
2023/07/23 07:47:39;;;;;;;4.10;3.53;;;25.30;47.50;;;;;;5054370;28;20285;-67
2023/07/23 07:50:07;;;;;;;3.30;3.00;;;25.30;47.50;;;;;;5054372;28;20675;-68
2023/07/23 07:52:33;;;;;;;2.90;2.70;;;25.30;47.50;;;;;;5054138;28;20179;-68
2023/07/23 07:54:59;;;;;;;3.53;3.17;;;25.30;47.50;;;;;;5053293;28;20762;-68
2023/07/23 07:57:26;;;;;;;3.87;3.23;;;25.30;47.50;;;;;;5052952;28;20198;-67
2023/07/23 07:59:52;;;;;;;3.40;2.73;;;25.30;47.60;;;;;;5053929;28;20445;-68
2023/07/23 08:02:18;;;;;;;3.50;2.50;;;25.30;47.60;;;;;;5054942;28;20420;-67
2023/07/23 08:04:44;;;;;;;3.70;3.07;;;25.30;47.60;;;;;;5054569;28;20175;-67
2023/07/23 08:07:10;;;;;;;3.40;2.80;;;25.30;47.60;;;;;;5054481;28;20670;-68
2023/07/23 08:09:37;;;;;;;4.23;3.47;;;25.30;47.60;;;;;;5053902;28;20680;-67
2023/07/23 08:12:05;;;;;;;3.20;2.90;;;25.30;47.50;;;;;;5053916;28;20508;-67
2023/07/23 08:14:33;;;;;;;3.00;2.70;;;25.30;47.50;;;;;;5052659;28;20772;-67
2023/07/23 08:16:59;;;;;;;3.57;2.90;;;25.30;47.50;;;;;;5054101;28;20941;-68
2023/07/23 08:19:24;;;;;;;2.73;2.43;;;25.30;47.40;;;;;;5054037;28;20445;-67
2023/07/23 08:21:50;;;;;;;4.50;2.50;;;25.30;47.40;;;;;;5053966;28;20886;-68
2023/07/23 08:24:16;;;;;;;4.53;3.33;;;25.30;47.30;;;;;;5053700;28;20256;-68
2023/07/23 08:26:45;;;;;;;3.53;2.70;;;25.30;47.30;;;;;;5053571;28;20356;-67
2023/07/23 08:29:13;;;;;;;4.57;2.73;;;25.40;47.30;;;;;;5053846;28;20286;-67
2023/07/23 08:31:39;;;;;;;3.50;2.80;;;25.30;47.20;;;;;;5054096;28;20504;-67
2023/07/23 08:34:05;;;;;;;2.87;2.40;;;25.30;47.10;;;;;;5053768;28;20854;-67
2023/07/23 08:36:31;;;;;;;2.73;2.20;;;25.40;47.00;;;;;;5052937;28;20293;-68
2023/07/23 08:38:57;;;;;;;3.23;2.97;;;25.30;46.90;;;;;;5052401;28;20317;-67
2023/07/23 08:41:26;;;;;;;2.40;2.20;;;25.40;46.90;;;;;;5052997;28;20414;-67
2023/07/23 08:44:14;;;;;;;3.90;3.00;;;25.40;46.90;;;;;;5053989;28;20171;-67
2023/07/23 08:46:45;;;;;;;2.87;2.60;;;25.40;46.90;;;;;;5053927;28;20402;-68
2023/07/23 08:49:11;;;;;;;2.60;2.40;;;25.30;46.80;;;;;;5053622;28;20449;-68
2023/07/23 08:51:41;;;;;;;3.23;2.80;;;25.30;46.80;;;;;;5054115;28;20757;-68
2023/07/23 08:54:08;;;;;;;3.37;3.07;;;25.30;46.80;;;;;;5053643;28;20449;-66
2023/07/23 08:56:34;;;;;;;3.57;3.20;;;25.40;46.80;;;;;;5054233;28;21001;-67
2023/07/23 08:59:04;;;;;;;3.60;2.80;;;25.30;46.80;;;;;;5052811;28;20434;-67
2023/07/23 09:01:36;;;;;;;4.17;3.00;;;25.40;46.80;;;;;;5054183;28;20459;-67
2023/07/23 09:04:04;;;;;;;4.90;2.90;;;25.30;46.80;;;;;;5052895;28;20418;-67
2023/07/23 09:06:31;;;;;;;4.33;3.07;;;25.40;46.90;;;;;;5054646;28;20409;-67
2023/07/23 09:09:07;;;;;;;2.63;2.37;;;25.40;46.90;;;;;;5055854;28;20820;-68
2023/07/23 09:11:34;;;;;;;3.40;2.50;;;25.40;46.90;;;;;;5058342;28;20421;-68
2023/07/23 09:14:02;;;;;;;3.00;2.30;;;25.30;46.90;;;;;;5058424;28;20433;-68
2023/07/23 09:16:28;;;;;;;3.20;2.90;;;25.40;47.00;;;;;;5059099;28;20416;-67
2023/07/23 09:18:54;;;;;;;3.80;2.50;;;25.40;47.00;;;;;;5059049;28;20965;-68
2023/07/23 09:21:24;;;;;;;2.87;2.67;;;25.30;46.90;;;;;;5056993;28;20835;-67
2023/07/23 09:23:54;;;;;;;4.13;2.60;;;25.40;47.00;;;;;;5057868;28;20175;-67
2023/07/23 09:26:25;;;;;;;3.70;2.90;;;25.40;47.00;;;;;;5058112;28;20466;-68
2023/07/23 09:28:57;;;;;;;2.80;2.60;;;25.40;47.00;;;;;;5058530;28;20430;-67
2023/07/23 09:31:26;;;;;;;3.63;2.73;;;25.40;47.00;;;;;;5058379;28;20437;-68
2023/07/23 09:33:54;;;;;;;3.53;2.83;;;25.40;47.60;;;;;;5058601;28;20467;-68
2023/07/23 09:36:24;;;;;;;3.87;2.57;;;25.40;47.00;;;;;;5058804;28;20414;-68
2023/07/23 09:39:08;;;;;;;4.33;2.93;;;25.40;47.10;;;;;;5058606;28;20500;-68
2023/07/23 09:41:37;;;;;;;3.10;2.80;;;25.40;47.00;;;;;;5059465;28;20436;-68
2023/07/23 09:44:12;;;;;;;3.90;2.80;;;25.40;47.10;;;;;;5059654;28;20408;-68
2023/07/23 09:46:46;;;;;;;2.80;2.40;;;25.40;47.10;;;;;;5054733;28;20457;-67
2023/07/23 09:49:14;;;;;;;3.60;2.47;;;25.40;47.10;;;;;;5055517;28;20465;-68
2023/07/23 09:51:53;;;;;;;3.20;2.43;;;25.40;47.10;;;;;;5057662;28;20426;-67
2023/07/23 09:54:20;;;;;;;2.70;2.43;;;25.40;47.10;;;;;;5045345;28;20472;-67
2023/07/23 09:56:46;;;;;;;3.13;2.83;;;25.40;47.10;;;;;;5053859;28;20598;-69
2023/07/23 09:59:13;;;;;;;2.57;2.30;;;25.40;47.10;;;;;;5052054;28;20441;-69
2023/07/23 10:01:39;;;;;;;3.00;2.63;;;25.40;47.20;;;;;;5054203;28;20605;-68
2023/07/23 10:04:05;;;;;;;3.23;2.60;;;25.40;47.20;;;;;;5053884;28;20459;-68
2023/07/23 10:06:31;;;;;;;3.90;2.90;;;25.40;47.20;;;;;;5054149;28;20413;-66
2023/07/23 10:08:57;;;;;;;3.10;2.47;;;25.40;47.20;;;;;;5055079;28;20487;-67
2023/07/23 10:11:23;;;;;;;2.90;2.60;;;25.40;47.20;;;;;;5056977;28;20167;-67
2023/07/23 10:13:48;;;;;;;3.37;2.53;;;25.40;47.20;;;;;;5057143;28;20432;-67
2023/07/23 10:16:16;;;;;;;3.10;2.80;;;25.40;47.10;;;;;;5055088;28;20642;-67
2023/07/23 10:18:43;;;;;;;5.33;2.30;;;25.40;47.20;;;;;;5056698;28;20745;-68
2023/07/23 10:21:10;;;;;;;2.93;2.60;;;25.50;47.20;;;;;;5053212;28;20467;-67
2023/07/23 10:23:39;;;;;;;2.47;2.27;;;25.40;47.10;;;;;;5054569;28;20406;-67
2023/07/23 10:26:25;;;;;;;2.90;2.60;;;25.40;47.20;;;;;;5054367;28;20814;-65
2023/07/23 10:29:11;;;;;;;3.50;2.57;;;25.50;47.20;;;;;;5053292;28;20428;-66
2023/07/23 10:31:38;;;;;;;2.57;2.10;;;25.50;47.20;;;;;;5056345;28;20418;-68
2023/07/23 10:34:25;;;;;;;2.77;2.57;;;25.50;47.30;;;;;;5059387;28;20502;-68
2023/07/23 10:37:10;;;;;;;4.30;2.60;;;25.40;47.20;;;;;;5059336;28;20467;-68
2023/07/23 10:39:44;;;;;;;2.50;2.30;;;25.50;47.30;;;;;;5059506;28;20433;-68
2023/07/23 10:42:10;;;;;;;3.57;2.63;;;25.50;47.20;;;;;;5059228;28;20394;-68
2023/07/23 10:44:38;;;;;;;2.30;2.10;;;25.40;47.10;;;;;;5059501;28;20546;-68
2023/07/23 10:47:32;;;;;;;3.50;1.90;;;25.50;47.20;;;;;;5058505;28;20410;-68
2023/07/23 10:50:14;;;;;;;3.37;2.50;;;25.50;47.10;;;;;;5058423;28;20528;-67
2023/07/23 10:52:48;;;;;;;3.40;2.23;;;25.50;47.10;;;;;;5059013;28;20406;-68
2023/07/23 10:55:41;;;;;;;2.83;2.30;;;25.40;47.00;;;;;;5057139;28;20406;-67
2023/07/23 10:58:11;;;;;;;3.90;2.40;;;25.50;47.10;;;;;;5058918;28;20473;-69
2023/07/23 11:00:45;;;;;;;2.73;2.20;;;25.40;47.10;;;;;;5058524;28;20425;-66
2023/07/23 11:03:17;;;;;;;3.27;2.37;;;25.40;47.10;;;;;;5058697;28;20414;-68
2023/07/23 11:05:43;;;;;;;4.03;2.37;;;25.50;47.20;;;;;;5059030;28;20413;-67
2023/07/23 11:08:16;;;;;;;2.50;2.30;;;25.50;47.10;;;;;;5057401;28;20564;-67
2023/07/23 11:10:57;;;;;;;2.53;2.07;;;25.50;47.10;;;;;;5057988;28;20444;-67
2023/07/23 11:13:25;;;;;;;2.37;1.93;;;25.50;47.20;;;;;;5057808;28;20390;-68
2023/07/23 11:15:51;;;;;;;2.40;2.20;;;25.50;47.20;;;;;;5057494;28;20413;-68
2023/07/23 11:18:19;;;;;;;2.50;1.93;;;25.50;47.20;;;;;;5057302;28;20491;-68
2023/07/23 11:20:52;;;;;;;2.90;2.50;;;25.50;47.20;;;;;;5057645;28;20425;-67
2023/07/23 11:23:20;;;;;;;3.13;2.33;;;25.50;47.20;;;;;;5056707;28;20520;-67
2023/07/23 11:25:47;;;;;;;3.00;2.43;;;25.50;47.20;;;;;;5055772;28;20445;-68
2023/07/23 11:28:16;;;;;;;2.63;1.93;;;25.50;47.20;;;;;;5056551;28;20433;-67
2023/07/23 11:30:42;;;;;;;2.23;2.03;;;25.50;47.20;;;;;;5056463;28;20417;-68
2023/07/23 11:33:08;;;;;;;2.83;1.80;;;25.50;47.20;;;;;;5056045;28;20417;-66
2023/07/23 11:35:34;;;;;;;2.07;1.87;;;25.50;47.20;;;;;;5056049;28;20552;-67
2023/07/23 11:38:04;;;;;;;2.73;2.00;;;25.50;47.20;;;;;;5056459;28;20473;-67
2023/07/23 11:40:29;;;;;;;1.97;1.73;;;25.50;47.20;;;;;;5056045;28;20401;-68
2023/07/23 11:42:55;;;;;;;2.70;2.37;;;25.50;47.20;;;;;;5056614;28;20790;-67
2023/07/23 11:45:21;;;;;;;3.50;2.27;;;25.50;47.20;;;;;;5056811;28;20201;-68
2023/07/23 11:47:48;;;;;;;2.90;2.37;;;25.50;47.20;;;;;;5055640;28;20201;-68
2023/07/23 11:50:18;;;;;;;2.20;2.00;;;25.50;47.20;;;;;;5056763;28;20440;-67
2023/07/23 11:52:46;;;;;;;2.57;1.80;;;25.50;47.20;;;;;;5057608;28;20425;-68
2023/07/23 11:55:27;;;;;;;2.57;2.13;;;25.50;47.20;;;;;;5055609;28;20475;-69
2023/07/23 11:57:57;;;;;;;2.37;2.17;;;25.50;47.20;;;;;;5057012;28;20472;-67
2023/07/23 12:00:37;;;;;;;2.33;1.90;;;25.50;47.20;;;;;;5056978;28;20436;-67
2023/07/23 12:03:06;;;;;;;2.27;2.07;;;25.50;47.20;;;;;;5056947;28;20436;-69
2023/07/23 12:05:32;;;;;;;2.63;1.97;;;25.50;47.20;;;;;;5055688;28;20429;-68
2023/07/23 12:07:57;;;;;;;2.30;2.10;;;25.50;47.20;;;;;;5056324;28;20442;-68
2023/07/23 12:10:25;;;;;;;2.47;2.20;;;25.50;47.20;;;;;;5057150;28;20227;-68
2023/07/23 12:12:51;;;;;;;3.63;2.13;;;25.50;47.20;;;;;;5057142;28;20175;-68
2023/07/23 12:15:17;;;;;;;2.40;1.70;;;25.60;47.30;;;;;;5057050;28;20424;-68
2023/07/23 12:17:44;;;;;;;2.00;1.80;;;25.50;47.20;;;;;;5056963;28;20219;-67
2023/07/23 12:20:14;;;;;;;4.50;2.23;;;25.50;47.20;;;;;;5057058;28;20417;-67
2023/07/23 12:22:53;;;;;;;3.03;1.73;;;25.60;47.30;;;;;;5057193;28;20404;-67
2023/07/23 12:25:20;;;;;;;2.20;1.90;;;25.50;47.20;;;;;;5056930;28;20414;-67
2023/07/23 12:27:46;;;;;;;2.13;1.93;;;25.50;47.30;;;;;;5056763;28;20498;-68
2023/07/23 12:30:12;;;;;;;2.23;2.03;;;25.60;47.30;;;;;;5056695;28;20773;-68
2023/07/23 12:32:38;;;;;;;2.30;2.10;;;25.50;47.30;;;;;;5053713;28;20252;-67
2023/07/23 12:35:04;;;;;;;2.20;1.90;;;25.60;47.30;;;;;;5051585;28;20508;-67
2023/07/23 12:37:31;;;;;;;2.50;1.90;;;25.50;47.20;;;;;;5055182;28;20633;-68
2023/07/23 12:39:57;;;;;;;2.67;1.87;;;25.50;47.20;;;;;;5055132;28;20421;-67
2023/07/23 12:42:23;;;;;;;2.03;1.70;;;25.60;47.30;;;;;;5056923;28;20410;-67
2023/07/23 12:44:49;;;;;;;1.90;1.70;;;25.60;47.30;;;;;;5060143;28;20889;-66
2023/07/23 12:47:15;;;;;;;2.80;2.10;;;25.50;47.20;;;;;;5059986;28;20405;-67
2023/07/23 12:49:40;;;;;;;2.83;2.27;;;25.60;47.30;;;;;;5059894;28;20218;-67